createdAt,value
2023-02-18T00:00:10.190Z,2.50
2023-02-18T00:02:57.218Z,2.40
2023-02-18T00:05:24.192Z,3.10
2023-02-18T00:07:51.390Z,2.77
2023-02-18T00:10:18.393Z,2.73
2023-02-18T00:12:45.550Z,2.70
2023-02-18T00:15:12.484Z,3.27
2023-02-18T00:17:39.809Z,3.40
2023-02-18T00:20:07.687Z,3.23
2023-02-18T00:22:35.273Z,3.03
2023-02-18T00:25:02.151Z,2.97
2023-02-18T00:27:29.256Z,2.70
2023-02-18T00:29:56.134Z,2.47
2023-02-18T00:32:23.270Z,2.97
2023-02-18T00:34:50.097Z,2.73
2023-02-18T00:37:17.259Z,3.33
2023-02-18T00:39:44.387Z,3.03
2023-02-18T00:42:11.535Z,2.67
2023-02-18T00:44:38.477Z,2.57
2023-02-18T00:47:05.527Z,3.70
2023-02-18T00:49:32.451Z,2.80
2023-02-18T00:51:59.578Z,3.13
2023-02-18T00:54:26.315Z,2.70
2023-02-18T00:56:53.406Z,2.50
2023-02-18T00:59:20.449Z,3.00
2023-02-18T01:01:47.518Z,2.30
2023-02-18T01:04:14.299Z,2.90
2023-02-18T01:06:41.466Z,2.77
2023-02-18T01:09:08.638Z,3.03
2023-02-18T01:11:35.874Z,2.87
2023-02-18T01:14:03.391Z,2.60
2023-02-18T01:16:30.678Z,3.70
2023-02-18T01:18:57.558Z,3.30
2023-02-18T01:21:26.336Z,2.20
2023-02-18T01:23:53.123Z,2.80
2023-02-18T01:26:20.288Z,2.53
2023-02-18T01:28:47.106Z,3.23
2023-02-18T01:31:15.065Z,2.23
2023-02-18T01:33:42.178Z,3.23
2023-02-18T01:36:11.889Z,2.57
2023-02-18T01:38:39.392Z,2.97
2023-02-18T01:41:07.055Z,2.80
2023-02-18T01:43:34.011Z,2.43
2023-02-18T01:46:16.109Z,2.87
2023-02-18T01:48:56.804Z,2.57
2023-02-18T01:51:25.726Z,2.43
2023-02-18T01:54:04.703Z,2.87
2023-02-18T01:56:34.141Z,3.07
2023-02-18T01:59:03.926Z,4.00
2023-02-18T02:01:32.296Z,3.13
2023-02-18T02:03:59.350Z,3.30
2023-02-18T02:06:27.073Z,2.93
2023-02-18T02:08:59.521Z,3.07
2023-02-18T02:11:57.331Z,2.50
2023-02-18T02:14:49.135Z,2.97
2023-02-18T02:17:34.738Z,2.63
2023-02-18T02:20:34.001Z,2.83
2023-02-18T02:23:14.153Z,2.70
2023-02-18T02:26:02.601Z,2.87
2023-02-18T02:28:55.266Z,2.80
2023-02-18T02:31:46.073Z,2.63
2023-02-18T02:34:41.762Z,3.43
2023-02-18T02:37:25.360Z,4.00
2023-02-18T02:39:57.948Z,2.33
2023-02-18T02:42:41.489Z,2.93
2023-02-18T02:45:50.394Z,2.50
2023-02-18T02:48:40.611Z,2.70
2023-02-18T02:51:15.401Z,2.83
2023-02-18T02:53:44.062Z,3.07
2023-02-18T02:56:15.846Z,3.23
2023-02-18T02:58:54.502Z,3.43
2023-02-18T03:01:46.699Z,2.40
2023-02-18T03:04:37.339Z,2.33
2023-02-18T03:07:23.210Z,2.33
2023-02-18T03:10:15.877Z,2.97
2023-02-18T03:12:48.927Z,2.43
2023-02-18T03:15:41.635Z,3.30
2023-02-18T03:18:26.480Z,2.50
2023-02-18T03:20:53.260Z,2.23
2023-02-18T03:23:27.151Z,2.13
2023-02-18T03:25:56.952Z,3.03
2023-02-18T03:28:28.622Z,2.33
2023-02-18T03:31:07.152Z,2.30
2023-02-18T03:33:42.800Z,2.67
2023-02-18T03:36:11.288Z,2.70
2023-02-18T03:38:44.152Z,2.57
2023-02-18T03:41:12.540Z,2.97
2023-02-18T03:43:41.616Z,3.50
2023-02-18T03:46:08.915Z,2.50
2023-02-18T03:48:36.103Z,2.80
2023-02-18T03:51:02.957Z,2.50
2023-02-18T03:53:30.094Z,2.70
2023-02-18T03:55:56.854Z,2.57
2023-02-18T03:58:24.012Z,2.80
2023-02-18T04:00:50.774Z,2.40
2023-02-18T04:03:17.839Z,3.07
2023-02-18T04:05:44.633Z,3.50
2023-02-18T04:08:11.617Z,2.87
2023-02-18T04:10:38.422Z,2.77
2023-02-18T04:13:05.458Z,2.90
2023-02-18T04:15:32.570Z,2.77
2023-02-18T04:17:59.514Z,4.10
2023-02-18T04:20:26.514Z,2.87
2023-02-18T04:22:53.548Z,2.50
2023-02-18T04:25:20.325Z,2.90
2023-02-18T04:27:47.468Z,3.10
2023-02-18T04:30:14.535Z,2.77
2023-02-18T04:32:41.839Z,3.20
2023-02-18T04:35:08.693Z,2.10
2023-02-18T04:37:35.686Z,2.80
2023-02-18T04:40:02.461Z,3.17
2023-02-18T04:42:29.655Z,2.67
2023-02-18T04:44:56.396Z,2.90
2023-02-18T04:47:23.827Z,4.73
2023-02-18T04:49:50.667Z,3.33
2023-02-18T04:52:17.779Z,2.80
2023-02-18T04:54:44.480Z,2.43
2023-02-18T04:57:11.799Z,3.67
2023-02-18T04:59:38.878Z,2.80
2023-02-18T05:02:06.096Z,2.70
2023-02-18T05:04:32.915Z,2.83
2023-02-18T05:06:59.959Z,2.37
2023-02-18T05:09:26.782Z,2.90
2023-02-18T05:11:54.007Z,2.60
2023-02-18T05:14:20.779Z,3.50
2023-02-18T05:16:47.758Z,2.83
2023-02-18T05:19:16.434Z,3.27
2023-02-18T05:21:44.034Z,5.17
2023-02-18T05:24:10.892Z,3.37
2023-02-18T05:26:37.989Z,3.20
2023-02-18T05:29:05.012Z,2.90
2023-02-18T05:31:32.626Z,3.20
2023-02-18T05:33:59.667Z,4.70
2023-02-18T05:36:26.630Z,5.00
2023-02-18T05:38:53.379Z,5.57
2023-02-18T05:41:20.840Z,7.20
2023-02-18T05:44:06.430Z,4.77
2023-02-18T05:46:33.803Z,5.20
2023-02-18T05:49:00.685Z,5.43
2023-02-18T05:51:27.776Z,8.00
2023-02-18T05:53:55.663Z,6.30
2023-02-18T05:56:23.162Z,3.37
2023-02-18T05:58:50.024Z,4.45
2023-02-18T06:01:17.205Z,3.13
2023-02-18T06:03:44.003Z,3.77
2023-02-18T06:06:11.471Z,3.57
2023-02-18T06:08:38.474Z,3.80
2023-02-18T06:11:05.472Z,4.20
2023-02-18T06:13:32.360Z,3.20
2023-02-18T06:15:59.412Z,2.93
2023-02-18T06:18:26.276Z,3.43
2023-02-18T06:20:53.311Z,3.87
2023-02-18T06:23:20.064Z,4.23
2023-02-18T06:25:49.514Z,5.80
2023-02-18T06:28:17.289Z,4.03
2023-02-18T06:30:45.355Z,3.47
2023-02-18T06:33:12.926Z,3.93
2023-02-18T06:35:40.148Z,4.40
2023-02-18T06:38:06.927Z,3.80
2023-02-18T06:40:34.051Z,3.23
2023-02-18T06:43:00.760Z,4.20
2023-02-18T06:45:27.829Z,3.50
2023-02-18T06:47:54.642Z,3.20
2023-02-18T06:50:21.652Z,3.33
2023-02-18T06:52:48.685Z,3.57
2023-02-18T06:55:15.700Z,4.63
2023-02-18T06:57:42.485Z,4.57
2023-02-18T07:00:10.470Z,4.43
2023-02-18T07:02:37.248Z,3.70
2023-02-18T07:05:05.562Z,4.67
2023-02-18T07:07:32.444Z,5.60
2023-02-18T07:09:59.483Z,4.30
2023-02-18T07:12:26.296Z,3.87
2023-02-18T07:14:53.344Z,4.10
2023-02-18T07:17:20.158Z,4.30
2023-02-18T07:19:47.245Z,3.87
2023-02-18T07:22:14.276Z,4.97
2023-02-18T07:24:41.610Z,3.47
2023-02-18T07:27:08.445Z,4.10
2023-02-18T07:29:35.540Z,4.13
2023-02-18T07:32:02.375Z,4.53
2023-02-18T07:34:29.567Z,4.47
2023-02-18T07:36:56.401Z,5.03
2023-02-18T07:39:23.436Z,6.93
2023-02-18T07:41:50.323Z,3.77
2023-02-18T07:44:17.362Z,4.57
2023-02-18T07:46:44.890Z,4.60
2023-02-18T07:49:13.062Z,5.00
2023-02-18T07:51:40.358Z,4.60
2023-02-18T07:54:07.410Z,4.63
2023-02-18T07:56:34.271Z,4.70
2023-02-18T07:59:01.382Z,4.43
2023-02-18T08:01:28.261Z,4.30
2023-02-18T08:03:55.591Z,4.37
2023-02-18T08:06:33.249Z,3.57
2023-02-18T08:09:00.559Z,3.50
2023-02-18T08:11:27.393Z,4.00
2023-02-18T08:13:54.433Z,3.10
2023-02-18T08:16:22.209Z,3.30
2023-02-18T08:18:50.735Z,3.20
2023-02-18T08:21:18.832Z,3.30
2023-02-18T08:23:46.463Z,3.47
2023-02-18T08:26:14.116Z,4.23
2023-02-18T08:28:45.920Z,3.63
2023-02-18T08:31:21.683Z,4.63
2023-02-18T08:33:49.610Z,4.30
2023-02-18T08:36:16.368Z,3.17
2023-02-18T08:38:43.781Z,3.37
2023-02-18T08:41:10.884Z,4.63
2023-02-18T08:43:38.141Z,4.60
2023-02-18T08:46:05.638Z,3.87
2023-02-18T08:48:33.024Z,3.77
2023-02-18T08:50:59.796Z,3.23
2023-02-18T08:53:27.705Z,5.63
2023-02-18T08:55:54.519Z,5.40
2023-02-18T08:58:21.753Z,3.80
2023-02-18T09:00:48.583Z,4.13
2023-02-18T09:03:16.285Z,5.50
2023-02-18T09:05:43.308Z,3.87
2023-02-18T09:08:10.690Z,3.87
2023-02-18T09:10:39.393Z,4.27
2023-02-18T09:13:06.665Z,4.00
2023-02-18T09:15:33.533Z,4.50
2023-02-18T09:18:00.565Z,4.77
2023-02-18T09:20:27.845Z,3.60
2023-02-18T09:22:54.888Z,4.70
2023-02-18T09:25:21.819Z,3.73
2023-02-18T09:27:48.895Z,4.00
2023-02-18T09:30:15.837Z,4.50
2023-02-18T09:32:42.881Z,4.00
2023-02-18T09:35:09.867Z,6.63
2023-02-18T09:37:38.184Z,5.87
2023-02-18T09:40:05.503Z,4.53
2023-02-18T09:42:34.972Z,4.53
2023-02-18T09:45:08.332Z,4.63
2023-02-18T09:47:39.206Z,6.37
2023-02-18T09:50:32.500Z,6.07
2023-02-18T09:53:02.282Z,4.40
2023-02-18T09:55:36.242Z,5.07
2023-02-18T09:58:05.065Z,4.63
2023-02-18T10:00:33.905Z,4.53
2023-02-18T10:03:06.256Z,4.43
2023-02-18T10:05:36.364Z,5.10
2023-02-18T10:08:15.860Z,4.30
2023-02-18T10:10:45.705Z,4.17
2023-02-18T10:13:29.293Z,4.43
2023-02-18T10:15:56.066Z,4.70
2023-02-18T10:18:33.898Z,8.83
2023-02-18T10:21:04.619Z,6.93
2023-02-18T10:23:35.922Z,4.57
2023-02-18T10:26:10.688Z,4.57
2023-02-18T10:28:38.150Z,6.03
2023-02-18T10:31:11.525Z,6.07
2023-02-18T10:34:04.393Z,7.30
2023-02-18T10:36:47.948Z,4.80
2023-02-18T10:39:20.934Z,4.50
2023-02-18T10:41:58.977Z,4.20
2023-02-18T10:45:00.574Z,3.23
2023-02-18T10:47:53.859Z,3.70
2023-02-18T10:50:31.882Z,4.03
2023-02-18T10:53:11.391Z,4.27
2023-02-18T10:55:44.333Z,4.60
2023-02-18T10:58:34.124Z,3.97
2023-02-18T11:01:05.535Z,4.80
2023-02-18T11:03:43.056Z,3.60
2023-02-18T11:06:40.960Z,3.80
2023-02-18T11:09:23.229Z,4.07
2023-02-18T11:11:53.687Z,4.63
2023-02-18T11:14:43.026Z,5.03
2023-02-18T11:17:17.574Z,3.37
2023-02-18T11:19:52.720Z,3.70
2023-02-18T11:22:22.879Z,3.60
2023-02-18T11:24:58.110Z,4.47
2023-02-18T11:27:25.133Z,4.70
2023-02-18T11:29:56.175Z,3.53
2023-02-18T11:32:27.497Z,4.20
2023-02-18T11:34:54.530Z,3.43
2023-02-18T11:37:23.274Z,3.70
2023-02-18T11:39:53.134Z,3.87
2023-02-18T11:42:23.337Z,3.73
2023-02-18T11:44:56.654Z,3.63
2023-02-18T11:47:36.653Z,3.83
2023-02-18T11:50:09.609Z,5.03
2023-02-18T11:52:40.234Z,4.80
2023-02-18T11:55:21.373Z,5.13
2023-02-18T11:57:56.235Z,4.20
2023-02-18T12:00:43.530Z,5.20
2023-02-18T12:03:46.093Z,5.07
2023-02-18T12:06:18.472Z,5.83
2023-02-18T12:08:56.641Z,4.10
2023-02-18T12:11:35.909Z,4.83
2023-02-18T12:14:03.502Z,4.07
2023-02-18T12:16:45.421Z,4.37
2023-02-18T12:19:38.109Z,5.87
2023-02-18T12:22:16.988Z,4.23
2023-02-18T12:25:02.647Z,4.07
2023-02-18T12:28:04.711Z,3.13
2023-02-18T12:30:58.199Z,3.57
2023-02-18T12:33:36.000Z,3.77
2023-02-18T12:36:15.906Z,4.33
2023-02-18T12:39:12.645Z,4.43
2023-02-18T12:41:42.651Z,5.63
2023-02-18T12:44:35.904Z,3.53
2023-02-18T12:47:38.265Z,3.73
2023-02-18T12:50:15.309Z,4.00
2023-02-18T12:52:51.462Z,3.57
2023-02-18T12:55:51.620Z,3.27
2023-02-18T12:58:39.630Z,4.10
2023-02-18T13:01:24.552Z,4.30
2023-02-18T13:04:10.145Z,3.77
2023-02-18T13:07:14.619Z,3.30
2023-02-18T13:09:57.121Z,4.83
2023-02-18T13:12:37.938Z,3.67
2023-02-18T13:15:16.148Z,3.53
2023-02-18T13:17:43.867Z,4.00
2023-02-18T13:20:28.958Z,4.67
2023-02-18T13:22:56.813Z,4.57
2023-02-18T13:25:24.960Z,5.00
2023-02-18T13:28:09.732Z,4.53
2023-02-18T13:31:01.500Z,4.50
2023-02-18T13:33:44.767Z,4.63
2023-02-18T13:36:36.477Z,4.27
2023-02-18T13:39:08.644Z,3.87
2023-02-18T13:41:38.972Z,3.40
2023-02-18T13:44:30.020Z,4.20
2023-02-18T13:46:59.036Z,5.00
2023-02-18T13:49:37.927Z,4.27
2023-02-18T13:52:05.637Z,5.17
2023-02-18T13:54:44.818Z,3.97
2023-02-18T13:57:21.823Z,3.37
2023-02-18T13:59:57.955Z,3.23
2023-02-18T14:02:25.193Z,4.23
2023-02-18T14:05:11.246Z,3.73
2023-02-18T14:07:50.089Z,3.97
2023-02-18T14:10:16.827Z,3.17
2023-02-18T14:13:00.724Z,3.93
2023-02-18T14:15:27.664Z,4.53
2023-02-18T14:18:12.867Z,4.87
2023-02-18T14:20:39.572Z,2.87
2023-02-18T14:23:19.012Z,2.70
2023-02-18T14:25:57.233Z,2.90
2023-02-18T14:28:36.374Z,2.90
2023-02-18T14:31:12.836Z,2.97
2023-02-18T14:33:44.396Z,2.67
2023-02-18T14:36:25.357Z,4.20
2023-02-18T14:39:09.685Z,4.70
2023-02-18T14:41:43.308Z,5.90
2023-02-18T14:44:27.992Z,3.37
2023-02-18T14:47:29.040Z,3.17
2023-02-18T14:49:59.868Z,2.80
2023-02-18T14:52:44.845Z,3.10
2023-02-18T14:55:20.542Z,2.83
2023-02-18T14:57:54.763Z,2.90
2023-02-18T15:00:32.076Z,4.17
2023-02-18T15:03:00.880Z,6.93
2023-02-18T15:05:32.407Z,5.97
2023-02-18T15:08:04.459Z,5.97
2023-02-18T15:10:49.808Z,3.30
2023-02-18T15:13:28.047Z,3.90
2023-02-18T15:16:03.617Z,4.40
2023-02-18T15:18:30.397Z,5.47
2023-02-18T15:20:57.613Z,5.97
2023-02-18T15:23:24.683Z,4.97
2023-02-18T15:25:53.629Z,4.03
2023-02-18T15:28:34.231Z,4.10
2023-02-18T15:31:04.039Z,3.43
2023-02-18T15:33:30.877Z,2.90
2023-02-18T15:36:13.724Z,2.03
2023-02-18T15:38:44.472Z,2.50
2023-02-18T15:41:14.031Z,2.67
2023-02-18T15:43:53.085Z,3.90
2023-02-18T15:46:22.633Z,3.77
2023-02-18T15:48:53.323Z,9.90
2023-02-18T15:51:25.478Z,5.10
2023-02-18T15:53:56.489Z,10.43
2023-02-18T15:56:37.658Z,7.63
2023-02-18T15:59:15.121Z,9.93
2023-02-18T16:01:42.769Z,6.03
2023-02-18T16:04:14.966Z,5.10
2023-02-18T16:06:48.772Z,8.77
2023-02-18T16:09:22.484Z,6.93
2023-02-18T16:12:02.998Z,5.50
2023-02-18T16:14:34.601Z,3.87
2023-02-18T16:17:23.638Z,3.67
2023-02-18T16:20:18.204Z,4.07
2023-02-18T16:22:47.190Z,5.60
2023-02-18T16:25:14.369Z,5.97
2023-02-18T16:28:13.667Z,6.03
2023-02-18T16:30:45.251Z,5.63
2023-02-18T16:33:12.910Z,3.70
2023-02-18T16:35:49.588Z,5.00
2023-02-18T16:38:22.579Z,5.37
2023-02-18T16:40:49.949Z,5.87
2023-02-18T16:43:19.717Z,7.23
2023-02-18T16:45:56.934Z,6.70
2023-02-18T16:48:30.027Z,13.03
2023-02-18T16:50:59.637Z,10.83
2023-02-18T16:53:26.650Z,12.73
2023-02-18T16:55:53.563Z,15.80
2023-02-18T16:58:20.561Z,17.27
2023-02-18T17:00:50.092Z,17.00
2023-02-18T17:03:17.219Z,17.30
2023-02-18T17:05:44.004Z,12.77
2023-02-18T17:08:17.211Z,17.60
2023-02-18T17:10:44.985Z,11.67
2023-02-18T17:13:18.429Z,9.80
2023-02-18T17:15:47.788Z,17.20
2023-02-18T17:18:16.148Z,11.73
2023-02-18T17:20:43.356Z,16.43
2023-02-18T17:23:21.119Z,10.60
2023-02-18T17:25:48.960Z,9.73
2023-02-18T17:28:19.058Z,6.37
2023-02-18T17:30:50.765Z,12.60
2023-02-18T17:33:19.205Z,8.37
2023-02-18T17:35:46.279Z,9.67
2023-02-18T17:38:15.420Z,13.80
2023-02-18T17:40:42.886Z,9.67
2023-02-18T17:43:15.203Z,12.27
2023-02-18T17:45:49.779Z,10.20
2023-02-18T17:48:16.926Z,10.83
2023-02-18T17:50:43.663Z,8.43
2023-02-18T17:53:12.340Z,10.20
2023-02-18T17:55:40.503Z,9.17
2023-02-18T17:58:07.919Z,8.40
2023-02-18T18:00:47.230Z,7.63
2023-02-18T18:03:14.862Z,6.93
2023-02-18T18:05:44.353Z,7.33
2023-02-18T18:08:12.383Z,6.83
2023-02-18T18:10:41.606Z,6.93
2023-02-18T18:13:18.094Z,10.83
2023-02-18T18:15:45.482Z,7.70
2023-02-18T18:18:13.140Z,8.50
2023-02-18T18:20:43.655Z,7.93
2023-02-18T18:23:16.107Z,7.87
2023-02-18T18:25:45.586Z,8.07
2023-02-18T18:28:13.359Z,7.10
2023-02-18T18:30:43.660Z,9.10
2023-02-18T18:33:21.507Z,8.67
2023-02-18T18:35:50.510Z,9.17
2023-02-18T18:38:22.213Z,8.00
2023-02-18T18:40:50.399Z,7.67
2023-02-18T18:43:33.065Z,7.63
2023-02-18T18:46:00.785Z,7.10
2023-02-18T18:48:29.558Z,8.50
2023-02-18T18:50:57.771Z,8.83
2023-02-18T18:53:28.097Z,9.97
2023-02-18T18:55:58.398Z,9.80
2023-02-18T18:58:26.127Z,12.20
2023-02-18T19:00:55.986Z,12.33
2023-02-18T19:03:24.647Z,13.93
2023-02-18T19:05:52.269Z,15.57
2023-02-18T19:08:20.365Z,13.40
2023-02-18T19:10:48.465Z,13.17
2023-02-18T19:13:26.717Z,12.37
2023-02-18T19:16:01.695Z,11.40
2023-02-18T19:18:29.947Z,9.63
2023-02-18T19:20:56.832Z,9.47
2023-02-18T19:23:23.841Z,9.57
2023-02-18T19:25:50.600Z,9.33
2023-02-18T19:28:18.913Z,9.20
2023-02-18T19:30:47.525Z,11.23
2023-02-18T19:33:15.298Z,11.73
2023-02-18T19:35:43.044Z,10.13
2023-02-18T19:38:15.853Z,10.33
2023-02-18T19:40:44.397Z,9.30
2023-02-18T19:43:12.173Z,9.60
2023-02-18T19:45:47.356Z,9.70
2023-02-18T19:48:15.597Z,8.80
2023-02-18T19:50:43.544Z,8.27
2023-02-18T19:53:11.160Z,7.97
2023-02-18T19:55:38.504Z,8.57
2023-02-18T19:58:06.167Z,8.50
2023-02-18T20:00:33.116Z,8.23
2023-02-18T20:03:00.323Z,7.50
2023-02-18T20:05:27.287Z,6.83
2023-02-18T20:07:54.428Z,7.53
2023-02-18T20:10:22.518Z,8.00
2023-02-18T20:12:54.248Z,8.07
2023-02-18T20:15:22.443Z,9.50
2023-02-18T20:17:49.980Z,8.67
2023-02-18T20:20:17.769Z,8.70
2023-02-18T20:22:45.310Z,8.13
2023-02-18T20:25:12.198Z,6.60
2023-02-18T20:27:47.950Z,6.60
2023-02-18T20:30:21.556Z,7.33
2023-02-18T20:32:48.825Z,7.27
2023-02-18T20:35:15.690Z,8.43
2023-02-18T20:37:42.647Z,8.37
2023-02-18T20:40:09.727Z,9.10
2023-02-18T20:42:36.816Z,10.80
2023-02-18T20:45:03.791Z,9.40
2023-02-18T20:47:30.798Z,8.50
2023-02-18T20:49:57.737Z,7.10
2023-02-18T20:52:24.777Z,7.60
2023-02-18T20:54:51.551Z,8.27
2023-02-18T20:57:18.570Z,7.93
2023-02-18T20:59:45.318Z,11.57
2023-02-18T21:02:16.688Z,10.80
2023-02-18T21:04:45.055Z,8.87
2023-02-18T21:07:12.197Z,5.80
2023-02-18T21:09:39.039Z,5.40
2023-02-18T21:12:06.165Z,5.07
2023-02-18T21:14:32.911Z,5.50
2023-02-18T21:17:00.005Z,6.27
2023-02-18T21:19:26.846Z,5.30
2023-02-18T21:21:53.925Z,5.23
2023-02-18T21:24:20.758Z,5.33
2023-02-18T21:26:47.823Z,5.10
2023-02-18T21:29:16.959Z,4.93
2023-02-18T21:31:44.416Z,4.43
2023-02-18T21:34:13.547Z,4.20
2023-02-18T21:36:41.120Z,3.97
2023-02-18T21:39:09.613Z,4.37
2023-02-18T21:41:40.457Z,5.27
2023-02-18T21:44:08.951Z,4.60
2023-02-18T21:46:36.783Z,6.13
2023-02-18T21:49:09.515Z,5.73
2023-02-18T21:51:56.654Z,5.30
2023-02-18T21:54:37.016Z,5.60
2023-02-18T21:57:05.840Z,5.40
2023-02-18T21:59:34.702Z,5.40
2023-02-18T22:02:03.290Z,6.23
2023-02-18T22:04:32.629Z,6.63
2023-02-18T22:07:00.101Z,6.57
2023-02-18T22:09:27.239Z,6.30
2023-02-18T22:11:54.456Z,7.17
2023-02-18T22:14:21.542Z,7.53
2023-02-18T22:16:48.849Z,5.83
2023-02-18T22:19:15.691Z,5.00
2023-02-18T22:21:43.047Z,4.93
2023-02-18T22:24:12.640Z,3.50
2023-02-18T22:26:40.179Z,4.27
2023-02-18T22:29:07.076Z,3.90
2023-02-18T22:31:34.233Z,4.13
2023-02-18T22:34:01.299Z,4.70
2023-02-18T22:36:29.294Z,4.93
2023-02-18T22:38:56.245Z,4.10
2023-02-18T22:41:24.858Z,5.00
2023-02-18T22:43:57.142Z,7.33
2023-02-18T22:46:25.255Z,5.23
2023-02-18T22:48:55.435Z,7.03
2023-02-18T22:51:25.228Z,5.20
2023-02-18T22:53:54.112Z,5.47
2023-02-18T22:56:22.332Z,5.37
2023-02-18T22:58:51.459Z,5.17
2023-02-18T23:01:23.814Z,6.07
2023-02-18T23:03:52.385Z,6.00
2023-02-18T23:06:20.934Z,4.90
2023-02-18T23:08:47.956Z,5.73
2023-02-18T23:11:18.041Z,5.10
2023-02-18T23:13:45.449Z,5.70
2023-02-18T23:16:14.752Z,5.53
2023-02-18T23:18:41.859Z,5.27
2023-02-18T23:21:17.340Z,5.17
2023-02-18T23:23:46.024Z,5.20
2023-02-18T23:26:13.823Z,4.87
2023-02-18T23:28:50.222Z,4.50
2023-02-18T23:31:20.071Z,5.23
2023-02-18T23:33:49.546Z,4.77
2023-02-18T23:36:20.516Z,4.20
2023-02-18T23:38:53.108Z,5.10
2023-02-18T23:41:20.842Z,4.90
2023-02-18T23:43:48.723Z,4.23
2023-02-18T23:46:19.198Z,3.80
2023-02-18T23:48:46.218Z,4.10
2023-02-18T23:51:15.689Z,4.93
2023-02-18T23:53:43.070Z,4.33
2023-02-18T23:56:16.285Z,4.10
2023-02-18T23:58:45.959Z,4.33
